createdAt,value
2023-05-13T00:01:06.313Z,61.37
2023-05-13T00:03:35.095Z,61.54
2023-05-13T00:06:05.832Z,61.51
2023-05-13T00:08:34.911Z,61.77
2023-05-13T00:11:03.933Z,61.84
2023-05-13T00:13:32.822Z,61.86
2023-05-13T00:16:01.635Z,61.87
2023-05-13T00:18:30.533Z,61.98
2023-05-13T00:21:00.292Z,62.03
2023-05-13T00:23:29.192Z,62.27
2023-05-13T00:25:57.865Z,62.32
2023-05-13T00:28:27.291Z,62.51
2023-05-13T00:30:56.069Z,62.53
2023-05-13T00:33:26.793Z,63.87
2023-05-13T00:35:56.942Z,64.62
2023-05-13T00:38:27.026Z,65.05
2023-05-13T00:40:55.655Z,64.75
2023-05-13T00:43:24.924Z,65.71
2023-05-13T00:45:53.735Z,66.74
2023-05-13T00:48:23.629Z,67.37
2023-05-13T00:50:52.521Z,66.94
2023-05-13T00:53:22.585Z,66.14
2023-05-13T00:55:51.215Z,66.33
2023-05-13T00:58:21.432Z,66.80
2023-05-13T01:01:00.477Z,67.15
2023-05-13T01:03:49.105Z,67.03
2023-05-13T01:06:53.031Z,66.85
2023-05-13T01:09:47.015Z,66.43
2023-05-13T01:12:23.468Z,66.96
2023-05-13T01:15:04.562Z,67.11
2023-05-13T01:17:39.354Z,67.51
2023-05-13T01:20:08.983Z,66.95
2023-05-13T01:22:37.451Z,66.72
2023-05-13T01:25:07.144Z,66.55
2023-05-13T01:27:36.369Z,66.98
2023-05-13T01:30:06.067Z,67.09
2023-05-13T01:32:35.840Z,67.70
2023-05-13T01:35:05.151Z,68.20
2023-05-13T01:37:35.535Z,68.37
2023-05-13T01:40:20.466Z,68.84
2023-05-13T01:42:56.941Z,69.51
2023-05-13T01:45:25.767Z,68.99
2023-05-13T01:47:54.768Z,68.70
2023-05-13T01:50:24.281Z,68.65
2023-05-13T01:52:53.237Z,68.85
2023-05-13T01:55:21.942Z,68.77
2023-05-13T01:57:51.341Z,69.03
2023-05-13T02:00:20.609Z,69.04
2023-05-13T02:02:51.575Z,69.07
2023-05-13T02:05:20.856Z,69.21
2023-05-13T02:07:49.648Z,69.51
2023-05-13T02:10:18.537Z,69.47
2023-05-13T02:12:47.947Z,69.68
2023-05-13T02:15:16.722Z,70.07
2023-05-13T02:17:45.326Z,70.36
2023-05-13T02:20:14.970Z,70.15
2023-05-13T02:22:44.513Z,70.20
2023-05-13T02:25:15.960Z,70.46
2023-05-13T02:27:44.759Z,70.82
2023-05-13T02:30:14.161Z,71.02
2023-05-13T02:32:44.468Z,71.59
2023-05-13T02:35:14.006Z,71.42
2023-05-13T02:37:43.001Z,71.20
2023-05-13T02:40:12.899Z,71.16
2023-05-13T02:42:42.004Z,70.96
2023-05-13T02:45:12.389Z,71.49
2023-05-13T02:47:42.784Z,71.52
2023-05-13T02:50:13.089Z,71.91
2023-05-13T02:52:42.078Z,71.99
2023-05-13T02:55:12.812Z,71.87
2023-05-13T02:57:43.928Z,72.15
2023-05-13T03:00:13.638Z,72.23
2023-05-13T03:02:42.813Z,72.23
2023-05-13T03:05:12.521Z,72.23
2023-05-13T03:07:41.431Z,72.39
2023-05-13T03:10:10.589Z,72.52
2023-05-13T03:12:39.211Z,72.63
2023-05-13T03:15:12.032Z,72.64
2023-05-13T03:17:41.620Z,72.76
2023-05-13T03:20:14.026Z,72.91
2023-05-13T03:22:42.670Z,73.01
2023-05-13T03:25:12.680Z,73.36
2023-05-13T03:27:44.337Z,73.31
2023-05-13T03:30:14.080Z,73.46
2023-05-13T03:32:48.675Z,73.63
2023-05-13T03:35:20.011Z,73.56
2023-05-13T03:37:49.216Z,73.89
2023-05-13T03:40:18.653Z,73.94
2023-05-13T03:42:48.243Z,74.02
2023-05-13T03:45:17.629Z,74.09
2023-05-13T03:47:47.488Z,74.19
2023-05-13T03:50:17.789Z,74.17
2023-05-13T03:52:47.486Z,74.15
2023-05-13T03:55:16.900Z,74.11
2023-05-13T03:57:49.678Z,74.19
2023-05-13T04:00:20.280Z,74.14
2023-05-13T04:02:50.097Z,73.74
2023-05-13T04:05:19.495Z,73.58
2023-05-13T04:07:48.195Z,73.34
2023-05-13T04:10:16.909Z,73.17
2023-05-13T04:12:46.820Z,72.79
2023-05-13T04:15:15.675Z,72.47
2023-05-13T04:17:44.233Z,72.27
2023-05-13T04:20:13.264Z,71.78
2023-05-13T04:22:41.955Z,71.65
2023-05-13T04:25:11.375Z,71.31
2023-05-13T04:27:40.076Z,70.83
2023-05-13T04:30:20.252Z,70.35
2023-05-13T04:32:49.733Z,70.11
2023-05-13T04:35:18.908Z,69.51
2023-05-13T04:37:50.358Z,69.36
2023-05-13T04:40:20.221Z,68.59
2023-05-13T04:42:55.217Z,68.36
2023-05-13T04:45:32.369Z,67.71
2023-05-13T04:48:02.092Z,67.36
2023-05-13T04:50:31.065Z,66.76
2023-05-13T04:53:01.283Z,66.35
2023-05-13T04:55:30.820Z,66.20
2023-05-13T04:58:00.419Z,65.89
2023-05-13T05:00:30.217Z,65.26
2023-05-13T05:02:59.058Z,64.82
2023-05-13T05:05:28.078Z,64.15
2023-05-13T05:07:59.258Z,63.65
2023-05-13T05:10:28.848Z,63.27
2023-05-13T05:13:00.837Z,62.94
2023-05-13T05:15:33.137Z,62.31
2023-05-13T05:18:03.161Z,61.98
2023-05-13T05:20:33.409Z,61.50
2023-05-13T05:23:04.056Z,61.08
2023-05-13T05:25:33.450Z,61.01
2023-05-13T05:28:06.878Z,61.03
2023-05-13T05:30:40.174Z,60.76
2023-05-13T05:33:14.643Z,61.02
2023-05-13T05:35:43.480Z,60.74
2023-05-13T05:38:16.556Z,60.46
2023-05-13T05:40:47.097Z,60.33
2023-05-13T05:43:18.416Z,60.64
2023-05-13T05:45:47.389Z,60.11
2023-05-13T05:48:19.077Z,59.94
2023-05-13T05:50:49.392Z,59.16
2023-05-13T05:53:24.847Z,59.19
2023-05-13T05:55:54.245Z,58.68
2023-05-13T05:58:23.031Z,58.77
2023-05-13T06:00:54.779Z,58.81
2023-05-13T06:03:23.494Z,58.94
2023-05-13T06:05:53.151Z,58.95
2023-05-13T06:08:23.021Z,58.19
2023-05-13T06:10:53.052Z,57.99
2023-05-13T06:13:22.731Z,58.08
2023-05-13T06:15:51.643Z,57.08
2023-05-13T06:18:20.710Z,57.12
2023-05-13T06:20:50.038Z,56.80
2023-05-13T06:23:20.450Z,56.54
2023-05-13T06:25:49.329Z,56.55
2023-05-13T06:28:18.204Z,55.97
2023-05-13T06:30:47.098Z,55.87
2023-05-13T06:33:15.934Z,55.85
2023-05-13T06:35:48.473Z,56.26
2023-05-13T06:38:18.790Z,55.78
2023-05-13T06:40:49.110Z,55.76
2023-05-13T06:43:18.737Z,55.39
2023-05-13T06:45:50.317Z,55.07
2023-05-13T06:48:19.775Z,55.07
2023-05-13T06:50:50.324Z,55.49
2023-05-13T06:53:19.107Z,55.55
2023-05-13T06:55:48.360Z,55.48
2023-05-13T06:58:19.395Z,55.55
2023-05-13T07:00:49.728Z,55.97
2023-05-13T07:03:18.470Z,55.53
2023-05-13T07:05:47.619Z,55.02
2023-05-13T07:08:18.367Z,55.48
2023-05-13T07:10:47.279Z,54.96
2023-05-13T07:13:16.792Z,54.42
2023-05-13T07:15:49.150Z,54.95
2023-05-13T07:18:17.904Z,55.64
2023-05-13T07:20:47.025Z,54.53
2023-05-13T07:23:15.600Z,54.15
2023-05-13T07:25:44.389Z,53.91
2023-05-13T07:28:13.493Z,54.14
2023-05-13T07:30:42.248Z,54.16
2023-05-13T07:33:11.212Z,54.51
2023-05-13T07:35:40.284Z,54.38
2023-05-13T07:38:11.107Z,55.32
2023-05-13T07:40:40.309Z,54.79
2023-05-13T07:43:09.903Z,54.67
2023-05-13T07:45:39.913Z,54.56
2023-05-13T07:48:10.476Z,55.13
2023-05-13T07:50:40.166Z,55.56
2023-05-13T07:53:08.738Z,55.13
2023-05-13T07:55:37.636Z,55.87
2023-05-13T07:58:07.028Z,55.79
2023-05-13T08:00:35.848Z,56.86
2023-05-13T08:03:07.193Z,55.99
2023-05-13T08:05:37.193Z,56.85
2023-05-13T08:08:06.176Z,58.09
2023-05-13T08:10:34.865Z,57.94
2023-05-13T08:13:04.892Z,56.74
2023-05-13T08:15:33.370Z,56.25
2023-05-13T08:18:02.216Z,55.93
2023-05-13T08:20:32.106Z,56.82
2023-05-13T08:23:02.497Z,57.03
2023-05-13T08:25:31.410Z,57.39
2023-05-13T08:28:01.208Z,56.90
2023-05-13T08:30:30.099Z,56.04
2023-05-13T08:32:58.835Z,56.12
2023-05-13T08:35:27.979Z,55.08
2023-05-13T08:37:57.163Z,55.03
2023-05-13T08:40:26.701Z,55.16
2023-05-13T08:42:58.856Z,55.13
2023-05-13T08:45:29.977Z,54.80
2023-05-13T08:48:01.849Z,54.90
2023-05-13T08:50:31.873Z,54.36
2023-05-13T08:53:01.179Z,55.07
2023-05-13T08:55:30.569Z,54.39
2023-05-13T08:57:59.492Z,53.90
2023-05-13T09:00:28.145Z,54.53
2023-05-13T09:02:56.957Z,53.98
2023-05-13T09:05:26.612Z,53.14
2023-05-13T09:07:56.246Z,51.98
2023-05-13T09:10:25.299Z,50.65
2023-05-13T09:12:55.791Z,50.34
2023-05-13T09:15:26.474Z,49.28
2023-05-13T09:18:00.008Z,50.07
2023-05-13T09:20:29.013Z,49.56
2023-05-13T09:23:03.946Z,50.55
2023-05-13T09:25:33.246Z,50.36
2023-05-13T09:28:04.426Z,50.56
2023-05-13T09:30:43.140Z,50.01
2023-05-13T09:33:15.533Z,49.28
2023-05-13T09:35:55.306Z,49.11
2023-05-13T09:38:29.493Z,48.23
2023-05-13T09:41:02.982Z,47.81
2023-05-13T09:43:34.894Z,47.02
2023-05-13T09:46:11.164Z,46.67
2023-05-13T09:48:43.331Z,46.57
2023-05-13T09:51:12.625Z,46.76
2023-05-13T09:53:41.714Z,46.74
2023-05-13T09:56:10.815Z,46.33
2023-05-13T09:58:39.623Z,46.49
2023-05-13T10:01:08.663Z,46.22
2023-05-13T10:03:37.852Z,46.17
2023-05-13T10:06:06.590Z,46.02
2023-05-13T10:08:36.511Z,46.16
2023-05-13T10:11:07.126Z,46.30
2023-05-13T10:13:36.870Z,46.48
2023-05-13T10:16:05.757Z,46.50
2023-05-13T10:18:34.435Z,46.53
2023-05-13T10:21:04.434Z,46.28
2023-05-13T10:23:34.622Z,46.70
2023-05-13T10:26:03.659Z,47.13
2023-05-13T10:28:33.243Z,47.00
2023-05-13T10:31:02.345Z,48.03
2023-05-13T10:33:31.491Z,47.78
2023-05-13T10:36:26.807Z,47.90
2023-05-13T10:39:19.717Z,48.05
2023-05-13T10:42:08.241Z,47.28
2023-05-13T10:44:37.964Z,47.05
2023-05-13T10:47:09.761Z,47.56
2023-05-13T10:49:40.134Z,47.19
2023-05-13T10:52:12.768Z,47.13
2023-05-13T10:54:42.743Z,47.19
2023-05-13T10:57:13.977Z,46.72
2023-05-13T11:00:19.524Z,47.25
2023-05-13T11:02:52.572Z,47.27
2023-05-13T11:05:21.972Z,46.93
2023-05-13T11:07:57.772Z,45.87
2023-05-13T11:10:30.495Z,45.00
2023-05-13T11:13:17.152Z,44.49
2023-05-13T11:15:50.793Z,45.01
2023-05-13T11:18:21.092Z,45.14
2023-05-13T11:20:55.549Z,44.15
2023-05-13T11:23:25.324Z,43.90
2023-05-13T11:26:12.468Z,44.38
2023-05-13T11:29:06.616Z,43.82
2023-05-13T11:31:53.457Z,43.77
2023-05-13T11:34:22.317Z,44.04
2023-05-13T11:36:54.565Z,43.69
2023-05-13T11:39:26.984Z,43.92
2023-05-13T11:42:01.945Z,44.36
2023-05-13T11:44:30.578Z,43.44
2023-05-13T11:47:06.228Z,43.11
2023-05-13T11:49:45.849Z,43.22
2023-05-13T11:52:21.408Z,43.47
2023-05-13T11:54:51.116Z,43.04
2023-05-13T11:57:21.644Z,42.35
2023-05-13T12:00:02.766Z,42.62
2023-05-13T12:02:35.347Z,42.13
2023-05-13T12:05:09.483Z,41.89
2023-05-13T12:07:40.053Z,42.20
2023-05-13T12:10:09.471Z,42.00
2023-05-13T12:12:40.808Z,41.64
2023-05-13T12:15:14.409Z,41.45
2023-05-13T12:17:43.575Z,41.25
2023-05-13T12:20:13.121Z,42.36
2023-05-13T12:22:44.782Z,42.55
2023-05-13T12:25:41.402Z,41.56
2023-05-13T12:28:19.905Z,41.71
2023-05-13T12:30:59.302Z,41.41
2023-05-13T12:33:30.610Z,40.76
2023-05-13T12:36:21.948Z,40.63
2023-05-13T12:39:20.689Z,40.53
2023-05-13T12:41:54.108Z,41.38
2023-05-13T12:44:23.003Z,42.11
2023-05-13T12:46:52.839Z,42.35
2023-05-13T12:49:22.929Z,43.01
2023-05-13T12:51:57.250Z,41.45
2023-05-13T12:54:25.818Z,40.23
2023-05-13T12:56:54.721Z,40.48
2023-05-13T12:59:23.592Z,40.34
2023-05-13T13:01:52.525Z,40.14
2023-05-13T13:04:21.108Z,38.26
2023-05-13T13:06:50.979Z,38.09
2023-05-13T13:09:19.594Z,36.91
2023-05-13T13:11:48.764Z,37.85
2023-05-13T13:14:17.462Z,39.13
2023-05-13T13:16:47.410Z,39.61
2023-05-13T13:19:16.386Z,40.09
2023-05-13T13:21:45.166Z,40.04
2023-05-13T13:24:14.372Z,40.84
2023-05-13T13:26:43.273Z,41.57
2023-05-13T13:29:12.464Z,42.68
2023-05-13T13:31:41.608Z,43.40
2023-05-13T13:34:12.465Z,43.54
2023-05-13T13:36:42.297Z,43.25
2023-05-13T13:39:11.902Z,44.11
2023-05-13T13:41:40.893Z,44.26
2023-05-13T13:44:09.679Z,44.23
2023-05-13T13:46:38.386Z,44.92
2023-05-13T13:49:22.726Z,45.15
2023-05-13T13:51:53.775Z,44.90
2023-05-13T13:54:22.540Z,44.74
2023-05-13T13:56:51.447Z,44.50
2023-05-13T13:59:20.226Z,43.88
2023-05-13T14:01:49.446Z,44.17
2023-05-13T14:04:24.029Z,44.53
2023-05-13T14:06:54.083Z,44.21
2023-05-13T14:09:22.896Z,44.54
2023-05-13T14:11:52.372Z,45.94
2023-05-13T14:14:21.132Z,45.77
2023-05-13T14:16:50.463Z,45.96
2023-05-13T14:19:19.942Z,46.27
2023-05-13T14:21:48.616Z,45.64
2023-05-13T14:24:17.435Z,46.65
2023-05-13T14:26:50.126Z,46.45
2023-05-13T14:29:18.577Z,47.38
2023-05-13T14:31:48.917Z,47.39
2023-05-13T14:34:17.591Z,46.71
2023-05-13T14:36:46.281Z,47.58
2023-05-13T14:39:15.167Z,47.83
2023-05-13T14:41:49.561Z,48.02
2023-05-13T14:44:18.254Z,47.64
2023-05-13T14:46:47.041Z,44.70
2023-05-13T14:49:17.134Z,45.20
2023-05-13T14:51:45.750Z,43.81
2023-05-13T14:54:14.946Z,44.54
2023-05-13T14:56:43.811Z,44.60
2023-05-13T14:59:12.630Z,44.21
2023-05-13T15:01:41.625Z,44.20
2023-05-13T15:04:10.209Z,44.03
2023-05-13T15:06:39.823Z,44.66
2023-05-13T15:09:09.421Z,43.92
2023-05-13T15:11:41.051Z,43.71
2023-05-13T15:14:11.596Z,43.24
2023-05-13T15:16:40.424Z,43.23
2023-05-13T15:19:09.491Z,40.71
2023-05-13T15:21:38.572Z,39.29
2023-05-13T15:24:09.122Z,40.78
2023-05-13T15:26:37.796Z,42.25
2023-05-13T15:29:06.691Z,40.52
2023-05-13T15:31:35.475Z,39.81
2023-05-13T15:34:03.947Z,39.18
2023-05-13T15:36:35.028Z,38.21
2023-05-13T15:39:04.837Z,38.26
2023-05-13T15:41:33.595Z,38.58
2023-05-13T15:44:02.376Z,38.26
2023-05-13T15:46:33.862Z,37.83
2023-05-13T15:49:03.146Z,37.82
2023-05-13T15:51:32.433Z,38.21
2023-05-13T15:54:01.760Z,38.06
2023-05-13T15:56:31.742Z,38.21
2023-05-13T15:59:00.341Z,38.52
2023-05-13T16:01:29.134Z,38.29
2023-05-13T16:03:58.067Z,38.76
2023-05-13T16:06:27.198Z,39.34
2023-05-13T16:08:56.766Z,39.70
2023-05-13T16:11:26.956Z,39.94
2023-05-13T16:13:56.038Z,40.42
2023-05-13T16:16:24.677Z,40.35
2023-05-13T16:18:53.642Z,40.40
2023-05-13T16:21:22.645Z,40.50
2023-05-13T16:23:51.478Z,40.78
2023-05-13T16:26:20.385Z,41.17
2023-05-13T16:28:51.030Z,41.28
2023-05-13T16:31:19.860Z,41.64
2023-05-13T16:33:48.909Z,41.56
2023-05-13T16:36:17.902Z,41.68
2023-05-13T16:38:47.709Z,41.75
2023-05-13T16:41:18.126Z,41.83
2023-05-13T16:43:47.022Z,41.73
2023-05-13T16:46:17.394Z,41.68
2023-05-13T16:48:46.483Z,41.69
2023-05-13T16:51:15.225Z,41.68
2023-05-13T16:53:44.003Z,41.70
2023-05-13T16:56:12.713Z,41.67
2023-05-13T16:58:41.581Z,41.73
2023-05-13T17:01:10.403Z,41.93
2023-05-13T17:03:39.209Z,41.80
2023-05-13T17:06:08.972Z,42.05
2023-05-13T17:08:37.867Z,42.10
2023-05-13T17:11:06.864Z,42.27
2023-05-13T17:13:35.765Z,42.40
2023-05-13T17:16:06.407Z,42.59
2023-05-13T17:18:35.087Z,42.80
2023-05-13T17:21:04.489Z,42.79
2023-05-13T17:23:33.872Z,43.01
2023-05-13T17:26:02.548Z,43.12
2023-05-13T17:28:34.011Z,43.01
2023-05-13T17:31:03.041Z,43.15
2023-05-13T17:33:32.015Z,43.38
2023-05-13T17:36:00.902Z,43.42
2023-05-13T17:38:29.822Z,43.65
2023-05-13T17:41:00.432Z,43.66
2023-05-13T17:43:29.813Z,43.73
2023-05-13T17:45:58.930Z,43.60
2023-05-13T17:48:27.769Z,44.02
2023-05-13T17:50:57.205Z,44.18
2023-05-13T17:53:26.082Z,44.58
2023-05-13T17:55:55.082Z,44.64
2023-05-13T17:58:23.865Z,44.95
2023-05-13T18:00:52.862Z,44.98
2023-05-13T18:03:22.488Z,45.55
2023-05-13T18:05:51.400Z,45.52
2023-05-13T18:08:22.516Z,45.67
2023-05-13T18:10:51.603Z,45.94
2023-05-13T18:13:20.395Z,46.00
2023-05-13T18:15:49.231Z,46.21
2023-05-13T18:18:18.970Z,46.45
2023-05-13T18:20:47.580Z,46.81
2023-05-13T18:23:16.980Z,46.98
2023-05-13T18:25:54.987Z,47.22
2023-05-13T18:28:25.634Z,47.49
2023-05-13T18:30:54.697Z,47.97
2023-05-13T18:33:23.907Z,48.07
2023-05-13T18:35:54.832Z,48.41
2023-05-13T18:38:28.332Z,48.64
2023-05-13T18:41:03.680Z,48.84
2023-05-13T18:43:35.652Z,49.32
2023-05-13T18:46:08.702Z,50.05
2023-05-13T18:48:39.374Z,50.02
2023-05-13T18:51:08.660Z,50.33
2023-05-13T18:53:38.562Z,50.34
2023-05-13T18:56:08.409Z,50.55
2023-05-13T18:58:39.093Z,50.85
2023-05-13T19:01:09.562Z,51.38
2023-05-13T19:03:39.167Z,51.65
2023-05-13T19:06:10.916Z,51.84
2023-05-13T19:08:39.488Z,52.05
2023-05-13T19:11:09.272Z,52.45
2023-05-13T19:13:46.922Z,52.66
2023-05-13T19:16:16.856Z,53.05
2023-05-13T19:18:46.173Z,53.24
2023-05-13T19:21:15.122Z,53.14
2023-05-13T19:23:43.916Z,53.44
2023-05-13T19:26:13.210Z,53.63
2023-05-13T19:28:44.432Z,54.18
2023-05-13T19:31:13.458Z,54.95
2023-05-13T19:33:45.937Z,54.80
2023-05-13T19:36:15.106Z,54.97
2023-05-13T19:38:44.613Z,55.12
2023-05-13T19:41:13.614Z,55.69
2023-05-13T19:43:42.492Z,55.35
2023-05-13T19:46:11.571Z,55.24
2023-05-13T19:48:40.684Z,55.41
2023-05-13T19:51:09.694Z,55.69
2023-05-13T19:53:40.051Z,55.64
2023-05-13T19:56:09.100Z,55.81
2023-05-13T19:58:38.591Z,56.01
2023-05-13T20:01:07.782Z,56.26
2023-05-13T20:03:36.895Z,56.46
2023-05-13T20:06:05.930Z,56.61
2023-05-13T20:08:36.121Z,56.70
2023-05-13T20:11:04.990Z,56.75
2023-05-13T20:13:34.521Z,57.03
2023-05-13T20:16:03.601Z,57.29
2023-05-13T20:18:32.371Z,57.39
2023-05-13T20:21:01.806Z,57.58
2023-05-13T20:23:32.253Z,57.68
2023-05-13T20:26:01.411Z,57.84
2023-05-13T20:28:30.455Z,58.18
2023-05-13T20:31:03.325Z,58.57
2023-05-13T20:33:32.089Z,58.72
2023-05-13T20:36:01.343Z,58.84
2023-05-13T20:38:31.261Z,58.95
2023-05-13T20:41:00.486Z,59.07
2023-05-13T20:43:31.882Z,59.26
2023-05-13T20:46:03.438Z,59.43
2023-05-13T20:48:33.534Z,59.71
2023-05-13T20:51:04.774Z,60.12
2023-05-13T20:53:34.224Z,60.38
2023-05-13T20:56:04.309Z,60.44
2023-05-13T20:58:33.074Z,60.73
2023-05-13T21:01:01.969Z,60.91
2023-05-13T21:03:32.511Z,61.07
2023-05-13T21:06:01.278Z,61.17
2023-05-13T21:08:30.365Z,61.19
2023-05-13T21:10:59.163Z,61.38
2023-05-13T21:13:27.758Z,61.49
2023-05-13T21:15:57.979Z,61.58
2023-05-13T21:18:27.451Z,61.73
2023-05-13T21:20:56.656Z,61.92
2023-05-13T21:23:25.542Z,62.13
2023-05-13T21:25:55.982Z,62.37
2023-05-13T21:28:24.896Z,62.52
2023-05-13T21:30:53.777Z,62.80
2023-05-13T21:33:22.557Z,62.96
2023-05-13T21:35:52.178Z,63.33
2023-05-13T21:38:21.157Z,63.55
2023-05-13T21:40:50.946Z,63.80
2023-05-13T21:43:19.635Z,64.20
2023-05-13T21:45:48.981Z,64.60
2023-05-13T21:48:17.691Z,64.92
2023-05-13T21:50:46.616Z,64.91
2023-05-13T21:53:16.349Z,65.19
2023-05-13T21:55:45.234Z,65.50
2023-05-13T21:58:14.134Z,65.77
2023-05-13T22:00:43.124Z,65.81
2023-05-13T22:03:12.072Z,66.19
2023-05-13T22:05:44.463Z,66.54
2023-05-13T22:08:13.473Z,66.73
2023-05-13T22:10:42.040Z,66.96
2023-05-13T22:13:10.844Z,67.16
2023-05-13T22:15:39.628Z,67.42
2023-05-13T22:18:08.735Z,67.72
2023-05-13T22:20:37.911Z,67.86
2023-05-13T22:23:07.934Z,68.12
2023-05-13T22:25:36.710Z,68.30
2023-05-13T22:28:05.416Z,68.53
2023-05-13T22:30:34.317Z,68.87
2023-05-13T22:33:04.255Z,69.11
2023-05-13T22:35:36.686Z,69.66
2023-05-13T22:38:05.584Z,69.66
2023-05-13T22:40:34.304Z,70.11
2023-05-13T22:43:03.556Z,70.17
2023-05-13T22:45:32.153Z,70.43
2023-05-13T22:48:00.967Z,70.67
2023-05-13T22:50:31.471Z,70.64
2023-05-13T22:52:59.981Z,70.80
2023-05-13T22:55:28.724Z,70.99
2023-05-13T22:57:57.305Z,71.20
2023-05-13T23:00:26.215Z,71.54
2023-05-13T23:02:55.465Z,71.54
2023-05-13T23:05:24.509Z,71.52
2023-05-13T23:07:53.179Z,71.52
2023-05-13T23:10:21.900Z,71.64
2023-05-13T23:12:50.748Z,71.75
2023-05-13T23:15:19.543Z,71.64
2023-05-13T23:17:48.275Z,71.91
2023-05-13T23:20:17.005Z,71.96
2023-05-13T23:22:47.336Z,71.93
2023-05-13T23:25:17.057Z,71.84
2023-05-13T23:27:46.917Z,72.17
2023-05-13T23:30:16.284Z,72.14
2023-05-13T23:32:45.928Z,72.17
2023-05-13T23:35:15.085Z,72.35
2023-05-13T23:37:43.755Z,72.55
2023-05-13T23:40:12.798Z,72.54
2023-05-13T23:42:43.488Z,72.60
2023-05-13T23:45:12.379Z,72.53
2023-05-13T23:47:42.365Z,72.51
2023-05-13T23:50:11.913Z,72.54
2023-05-13T23:52:41.506Z,72.86
2023-05-13T23:55:10.402Z,72.86
2023-05-13T23:57:41.009Z,72.89
